Time;durP1;ratioP1;P1;durP2;ratioP2;P2;SDS_P1;SDS_P2;PMS_P1;PMS_P2;Temp;Humidity;BMP_temperature;BMP_pressure;BME280_temperature;BME280_humidity;BME280_pressure;Samples;Min_cycle;Max_cycle;Signal;HPM_P1;HPM_P2
2022/01/26 00:08:33;;;;;;;7.57;5.05;;;22.40;69.10;;;;;;7809103;28;20285;-50
2022/01/26 00:12:19;;;;;;;8.05;4.75;;;22.30;69.30;;;;;;7809377;28;20243;-52
2022/01/26 00:16:09;;;;;;;6.90;4.32;;;22.20;69.20;;;;;;7809160;28;20214;-50
2022/01/26 00:20:04;;;;;;;7.85;4.55;;;22.20;69.30;;;;;;7808878;28;20668;-49
2022/01/26 00:27:51;;;;;;;9.73;4.70;;;22.10;69.50;;;;;;7808717;28;20190;-49
2022/01/26 00:39:56;;;;;;;7.32;4.38;;;21.90;69.50;;;;;;7808838;28;20195;-51
2022/01/26 00:43:50;;;;;;;6.72;4.80;;;21.90;69.50;;;;;;7808552;28;20167;-49
2022/01/26 00:47:36;;;;;;;8.38;4.95;;;21.80;69.60;;;;;;7773647;28;1027168;-48
2022/01/26 00:51:22;;;;;;;7.57;4.80;;;21.70;69.50;;;;;;7810277;28;20270;-48
2022/01/26 00:55:12;;;;;;;6.63;4.43;;;21.70;69.70;;;;;;7809904;28;20210;-49
2022/01/26 00:58:58;;;;;;;8.80;5.10;;;21.70;69.70;;;;;;7809443;28;20210;-52
2022/01/26 01:02:44;;;;;;;8.32;4.65;;;21.60;69.70;;;;;;7809873;28;20178;-49
2022/01/26 01:06:44;;;;;;;7.28;4.95;;;21.60;69.70;;;;;;7809843;28;20186;-52
2022/01/26 01:10:30;;;;;;;5.38;4.45;;;21.50;69.60;;;;;;7808651;28;20676;-52
2022/01/26 01:14:15;;;;;;;6.85;5.05;;;21.50;69.80;;;;;;7808342;28;20560;-50
2022/01/26 01:18:11;;;;;;;7.32;4.28;;;21.40;69.80;;;;;;7808791;28;20595;-49
2022/01/26 01:22:48;;;;;;;5.68;4.55;;;21.40;69.80;;;;;;7809400;28;20181;-50
2022/01/26 01:30:59;;;;;;;7.35;4.80;;;21.30;69.90;;;;;;7808446;28;20199;-51
2022/01/26 01:34:19;;;;;;;5.88;4.47;;;21.20;69.90;;;;;;7804547;28;20245;-53
2022/01/26 01:38:26;;;;;;;6.03;4.03;;;21.20;70.00;;;;;;7808240;28;20580;-49
2022/01/26 01:42:12;;;;;;;7.15;4.88;;;21.20;70.00;;;;;;7808379;28;20662;-51
2022/01/26 01:45:58;;;;;;;6.65;4.40;;;21.20;70.00;;;;;;7808179;28;20544;-52
2022/01/26 01:49:43;;;;;;;7.20;4.55;;;21.10;70.00;;;;;;7808050;28;20687;-49
2022/01/26 01:53:38;;;;;;;6.35;4.38;;;21.10;70.00;;;;;;7808150;28;20210;-51
2022/01/26 01:57:25;;;;;;;5.30;4.70;;;21.00;70.10;;;;;;7808080;28;20589;-52
2022/01/26 02:01:11;;;;;;;7.45;5.22;;;20.90;70.10;;;;;;7807682;28;20183;-52
2022/01/26 02:04:56;;;;;;;5.25;4.18;;;20.90;70.10;;;;;;7807911;28;20184;-52
2022/01/26 02:08:42;;;;;;;5.65;4.60;;;20.90;70.10;;;;;;7807488;28;20210;-51
2022/01/26 02:12:30;;;;;;;6.32;4.47;;;20.90;70.10;;;;;;7807610;28;20556;-50
2022/01/26 02:16:28;;;;;;;5.70;4.68;;;20.80;70.10;;;;;;7807787;28;20210;-52
2022/01/26 02:20:42;;;;;;;7.35;4.97;;;20.80;70.10;;;;;;7807234;28;20205;-53
2022/01/26 02:57:32;;;;;;;5.20;4.00;;;20.40;70.30;;;;;;7807301;28;20175;-51
2022/01/26 03:05:28;;;;;;;5.70;3.88;;;20.40;70.40;;;;;;7806818;28;20182;-51
2022/01/26 03:09:18;;;;;;;6.20;4.95;;;20.30;70.30;;;;;;7806502;28;20294;-53
2022/01/26 03:13:15;;;;;;;5.13;4.07;;;20.40;70.40;;;;;;7806706;28;20175;-52
2022/01/26 03:17:12;;;;;;;6.20;4.82;;;20.30;70.40;;;;;;7806823;28;20198;-52
2022/01/26 03:21:00;;;;;;;5.28;4.10;;;20.20;70.40;;;;;;7807046;28;20206;-49
2022/01/26 03:32:56;;;;;;;6.78;4.28;;;20.10;70.40;;;;;;7806570;28;20757;-52
2022/01/26 03:36:48;;;;;;;6.00;4.10;;;20.10;70.50;;;;;;7806486;28;20201;-52
2022/01/26 03:40:37;;;;;;;4.90;4.00;;;20.10;70.50;;;;;;7811946;28;20205;-49
2022/01/26 03:44:22;;;;;;;4.93;4.15;;;20.10;70.40;;;;;;7812105;28;20178;-49
2022/01/26 03:48:08;;;;;;;4.75;4.05;;;20.10;70.40;;;;;;7811345;28;20214;-50
2022/01/26 03:51:54;;;;;;;5.32;3.85;;;20.00;70.40;;;;;;7811696;28;20664;-50
2022/01/26 03:55:39;;;;;;;4.90;3.80;;;20.00;70.40;;;;;;7811734;28;20680;-52
2022/01/26 03:59:25;;;;;;;6.05;3.67;;;20.00;70.50;;;;;;7811157;28;20577;-52
2022/01/26 04:03:11;;;;;;;5.20;3.78;;;20.00;70.50;;;;;;7811338;28;20237;-51
2022/01/26 04:06:59;;;;;;;5.18;3.72;;;19.90;70.50;;;;;;7811250;28;20217;-51
2022/01/26 04:14:55;;;;;;;5.97;3.80;;;19.90;70.50;;;;;;7811047;28;20202;-53
2022/01/26 04:18:41;;;;;;;5.22;4.18;;;19.90;70.70;;;;;;7810705;28;20251;-51
2022/01/26 04:22:36;;;;;;;6.50;4.35;;;19.80;70.70;;;;;;7810775;28;20190;-50
2022/01/26 04:26:28;;;;;;;5.30;4.15;;;19.80;70.70;;;;;;7810901;28;20187;-50
2022/01/26 04:30:14;;;;;;;4.55;3.90;;;19.90;70.80;;;;;;7810564;28;20209;-50
2022/01/26 04:33:59;;;;;;;6.15;3.67;;;19.90;70.70;;;;;;7810497;28;20202;-51
2022/01/26 04:38:11;;;;;;;7.15;4.20;;;20.00;70.80;;;;;;7810068;28;20170;-52
2022/01/26 04:42:04;;;;;;;5.53;4.78;;;20.00;70.90;;;;;;7810161;28;20186;-49
2022/01/26 04:45:50;;;;;;;6.97;4.28;;;20.10;70.60;;;;;;7810196;28;20214;-48
2022/01/26 04:49:36;;;;;;;5.03;4.07;;;20.10;69.70;;;;;;7808573;28;20195;-51
2022/01/26 04:53:21;;;;;;;6.82;4.72;;;20.20;69.10;;;;;;7809916;28;20178;-49
2022/01/26 04:57:07;;;;;;;8.43;5.03;;;20.20;68.50;;;;;;7810005;28;20179;-49
2022/01/26 05:00:52;;;;;;;10.90;5.47;;;20.20;68.00;;;;;;7809614;28;20202;-49
2022/01/26 05:04:37;;;;;;;9.65;4.90;;;20.30;67.60;;;;;;7809699;28;20663;-50
2022/01/26 05:08:23;;;;;;;7.35;4.57;;;20.30;67.50;;;;;;7835680;28;20218;-51
2022/01/26 05:12:09;;;;;;;9.63;4.68;;;20.40;67.60;;;;;;7839458;28;20190;-50
2022/01/26 05:15:55;;;;;;;7.32;4.55;;;20.40;67.20;;;;;;7839573;28;20245;-48
2022/01/26 05:19:41;;;;;;;9.98;4.82;;;20.50;67.10;;;;;;7824049;28;20203;-50
2022/01/26 05:23:26;;;;;;;7.00;4.45;;;20.50;66.90;;;;;;7823270;28;20281;-52
2022/01/26 05:27:12;;;;;;;6.20;4.88;;;20.60;66.70;;;;;;7808125;28;20189;-51
2022/01/26 05:30:57;;;;;;;6.55;4.53;;;20.60;66.50;;;;;;7810188;28;20213;-48
2022/01/26 05:34:42;;;;;;;13.30;4.47;;;20.70;66.50;;;;;;7838666;28;20530;-49
2022/01/26 05:38:28;;;;;;;24.20;6.63;;;20.70;66.40;;;;;;7834556;28;20415;-51
2022/01/26 05:42:14;;;;;;;18.20;5.80;;;20.70;65.10;;;;;;7810050;28;20453;-51
2022/01/26 05:46:06;;;;;;;15.55;5.05;;;20.50;66.60;;;;;;7807400;28;20238;-51
2022/01/26 05:49:51;;;;;;;15.43;5.13;;;20.60;66.10;;;;;;7807131;28;20240;-52
2022/01/26 05:53:38;;;;;;;25.50;5.63;;;20.70;66.10;;;;;;7808310;28;20214;-48
2022/01/26 05:57:23;;;;;;;13.32;5.78;;;20.80;65.50;;;;;;7807114;28;20179;-54
2022/01/26 06:01:11;;;;;;;14.75;5.78;;;20.90;65.60;;;;;;7831907;28;20264;-52
2022/01/26 06:04:57;;;;;;;23.70;5.50;;;21.00;65.50;;;;;;7825337;28;20182;-50
2022/01/26 06:08:42;;;;;;;25.50;5.72;;;21.10;65.40;;;;;;7834930;28;20672;-51
2022/01/26 06:12:29;;;;;;;17.58;5.25;;;21.10;65.30;;;;;;7830850;28;20556;-52
2022/01/26 06:16:16;;;;;;;13.48;4.88;;;21.20;65.30;;;;;;7806263;28;20700;-53
2022/01/26 06:20:01;;;;;;;40.42;6.28;;;21.20;65.30;;;;;;7808849;28;20206;-51
2022/01/26 06:23:47;;;;;;;32.83;6.90;;;21.40;65.20;;;;;;7808088;28;20230;-54
2022/01/26 06:27:38;;;;;;;29.95;6.10;;;21.30;62.80;;;;;;7805699;28;20187;-52
2022/01/26 06:31:27;;;;;;;23.88;5.95;;;21.40;63.40;;;;;;7820984;28;20625;-52
2022/01/26 06:35:12;;;;;;;15.13;5.13;;;21.50;63.80;;;;;;7837401;28;20217;-49
2022/01/26 06:38:58;;;;;;;14.32;5.88;;;21.60;63.70;;;;;;7806041;28;20202;-53
2022/01/26 06:43:00;;;;;;;13.77;5.10;;;21.70;63.70;;;;;;7805411;28;20178;-52
2022/01/26 06:50:37;;;;;;;15.43;4.78;;;22.00;63.30;;;;;;7809991;28;20197;-48
2022/01/26 06:54:23;;;;;;;17.70;9.25;;;22.10;63.50;;;;;;7837071;28;20763;-52
2022/01/26 06:58:09;;;;;;;17.88;7.47;;;22.00;59.30;;;;;;7836724;28;20756;-50
2022/01/26 07:01:54;;;;;;;17.17;6.95;;;21.80;60.20;;;;;;7836938;28;20615;-51
2022/01/26 07:05:40;;;;;;;11.90;6.35;;;21.70;62.00;;;;;;7821820;28;20252;-48
2022/01/26 07:09:26;;;;;;;11.77;6.53;;;21.80;62.20;;;;;;7809790;28;20734;-49
2022/01/26 07:13:12;;;;;;;14.23;5.93;;;21.90;62.60;;;;;;7825500;28;20685;-49
2022/01/26 07:21:23;;;;;;;10.88;5.38;;;22.10;62.60;;;;;;7835273;28;20634;-52
2022/01/26 07:25:09;;;;;;;10.50;5.50;;;22.30;62.50;;;;;;7811928;28;20201;-49
2022/01/26 07:29:00;;;;;;;9.65;5.10;;;22.50;62.50;;;;;;7811287;28;20293;-49
2022/01/26 07:32:45;;;;;;;8.07;4.40;;;22.70;62.50;;;;;;7818462;28;20218;-50
2022/01/26 07:36:31;;;;;;;8.77;4.25;;;22.80;63.00;;;;;;7823220;28;20715;-49
2022/01/26 07:40:16;;;;;;;13.15;5.50;;;23.00;63.40;;;;;;7841788;28;20194;-49
2022/01/26 07:44:03;;;;;;;11.68;4.03;;;23.10;63.00;;;;;;7834179;28;20675;-52
2022/01/26 07:47:52;;;;;;;13.77;4.88;;;23.20;63.10;;;;;;7827006;28;20260;-53
2022/01/26 07:51:37;;;;;;;14.45;3.80;;;23.30;62.80;;;;;;7841639;28;20255;-55
2022/01/26 07:55:23;;;;;;;10.50;3.60;;;23.40;63.30;;;;;;7841148;28;20210;-50
2022/01/26 07:59:09;;;;;;;9.73;3.42;;;23.50;63.20;;;;;;7841375;28;20678;-48
2022/01/26 08:02:55;;;;;;;15.55;3.38;;;23.60;63.40;;;;;;7841259;28;20585;-50
2022/01/26 08:06:40;;;;;;;5.00;3.15;;;23.70;63.50;;;;;;7827544;28;20193;-49
2022/01/26 08:10:26;;;;;;;10.68;3.13;;;23.70;63.40;;;;;;7809983;28;20213;-50
2022/01/26 08:14:11;;;;;;;4.75;2.97;;;23.80;63.50;;;;;;7810011;28;20281;-51
2022/01/26 08:17:58;;;;;;;8.13;3.03;;;23.80;63.00;;;;;;7811183;28;20680;-49
2022/01/26 08:21:43;;;;;;;9.90;3.20;;;23.80;63.00;;;;;;7824347;28;20186;-48
2022/01/26 08:25:29;;;;;;;8.27;2.83;;;23.90;63.40;;;;;;7827063;28;20217;-49
2022/01/26 08:29:25;;;;;;;8.02;2.95;;;23.90;63.60;;;;;;7809845;28;20776;-52
2022/01/26 08:33:10;;;;;;;4.78;2.70;;;24.00;63.80;;;;;;7809844;28;20178;-52
2022/01/26 08:36:56;;;;;;;12.13;3.08;;;24.00;63.70;;;;;;7826165;28;20212;-49
2022/01/26 08:40:43;;;;;;;9.98;3.22;;;24.00;63.80;;;;;;7840258;28;20194;-48
2022/01/26 08:44:29;;;;;;;20.05;3.28;;;24.00;63.80;;;;;;7840186;28;20186;-51
2022/01/26 08:48:14;;;;;;;11.38;4.07;;;24.00;63.80;;;;;;7839469;28;20252;-49
2022/01/26 08:52:00;;;;;;;13.77;3.67;;;24.00;63.90;;;;;;7834744;28;20527;-48
2022/01/26 08:55:45;;;;;;;18.63;5.00;;;23.90;62.20;;;;;;7813686;28;20217;-51
2022/01/26 08:59:31;;;;;;;21.17;5.82;;;23.90;62.60;;;;;;7808309;28;20302;-53
2022/01/26 09:03:17;;;;;;;26.05;5.07;;;23.80;62.50;;;;;;7825294;28;20261;-51
2022/01/26 09:07:04;;;;;;;20.38;5.57;;;23.80;62.70;;;;;;7809096;28;20183;-51
2022/01/26 09:10:56;;;;;;;19.25;5.28;;;23.80;62.10;;;;;;7809035;28;20213;-52
2022/01/26 09:14:42;;;;;;;18.85;6.82;;;23.80;62.40;;;;;;7809095;28;20207;-53
2022/01/26 09:18:44;;;;;;;15.13;5.93;;;23.80;61.80;;;;;;7808775;28;20190;-53
2022/01/26 09:22:30;;;;;;;13.23;4.47;;;23.80;61.60;;;;;;7806480;28;20449;-49
2022/01/26 09:26:15;;;;;;;19.85;5.20;;;23.80;62.20;;;;;;7808755;28;20252;-50
2022/01/26 09:30:01;;;;;;;19.58;5.35;;;23.90;62.20;;;;;;7808357;28;20252;-53
2022/01/26 09:33:46;;;;;;;14.13;4.78;;;23.90;62.10;;;;;;7808902;28;20727;-53
2022/01/26 09:37:32;;;;;;;14.77;3.85;;;23.90;62.50;;;;;;7807419;28;20181;-52
2022/01/26 09:41:19;;;;;;;8.98;3.60;;;23.90;63.10;;;;;;7808532;28;20183;-50
2022/01/26 09:45:06;;;;;;;11.30;3.47;;;23.90;63.30;;;;;;7808247;28;20182;-50
2022/01/26 09:48:51;;;;;;;10.02;3.65;;;23.90;63.40;;;;;;7807797;28;20206;-50
2022/01/26 09:52:44;;;;;;;10.45;3.30;;;23.90;63.40;;;;;;7808720;28;20183;-50
2022/01/26 09:56:30;;;;;;;8.07;3.53;;;23.90;63.50;;;;;;7808270;28;20245;-51
2022/01/26 10:00:16;;;;;;;10.18;3.33;;;23.90;63.60;;;;;;7807719;28;20201;-52
2022/01/26 10:04:02;;;;;;;9.68;3.72;;;23.90;63.70;;;;;;7807851;28;20179;-49
2022/01/26 10:08:11;;;;;;;7.47;3.13;;;23.90;63.70;;;;;;7807633;28;20268;-50
2022/01/26 10:16:28;;;;;;;7.72;3.75;;;24.00;63.80;;;;;;7807620;28;20252;-53
2022/01/26 10:20:15;;;;;;;6.53;3.40;;;23.90;63.70;;;;;;7807271;28;20289;-54
2022/01/26 10:24:10;;;;;;;10.40;3.28;;;24.00;63.90;;;;;;7807644;28;20190;-50
2022/01/26 10:27:56;;;;;;;7.82;3.90;;;24.00;64.10;;;;;;7807097;28;20193;-54
2022/01/26 10:31:42;;;;;;;11.35;3.78;;;24.00;64.20;;;;;;7807252;28;20186;-54
2022/01/26 10:35:27;;;;;;;10.75;3.42;;;24.00;64.20;;;;;;7807166;28;20276;-54
2022/01/26 10:39:27;;;;;;;6.82;3.20;;;24.00;64.20;;;;;;7806670;28;20213;-53
2022/01/26 10:43:14;;;;;;;10.40;3.30;;;23.90;64.20;;;;;;7807552;28;20728;-54
2022/01/26 10:47:02;;;;;;;7.43;3.30;;;23.90;64.20;;;;;;7828924;28;20227;-53
2022/01/26 10:51:20;;;;;;;5.90;3.03;;;23.90;64.20;;;;;;7844222;28;20206;-54
2022/01/26 10:54:54;;;;;;;7.55;3.20;;;23.90;64.30;;;;;;7844090;28;20682;-54
2022/01/26 10:58:40;;;;;;;8.00;3.22;;;23.90;64.40;;;;;;7843888;28;20200;-52
2022/01/26 11:02:30;;;;;;;5.40;2.90;;;23.90;64.40;;;;;;7844090;28;20271;-55
2022/01/26 11:06:19;;;;;;;5.40;2.90;;;23.80;64.40;;;;;;7843718;28;20170;-52
2022/01/26 11:10:06;;;;;;;8.10;3.10;;;23.70;64.40;;;;;;7843647;28;20200;-55
2022/01/26 11:13:53;;;;;;;6.30;3.13;;;23.70;64.40;;;;;;7843665;28;20203;-55
2022/01/26 11:17:46;;;;;;;6.10;3.22;;;23.70;64.50;;;;;;7843430;28;20261;-52
2022/01/26 11:21:35;;;;;;;6.70;2.90;;;23.60;64.50;;;;;;7843596;28;20185;-54
2022/01/26 11:25:23;;;;;;;6.45;3.00;;;23.60;64.60;;;;;;7841326;28;20189;-53
2022/01/26 11:29:17;;;;;;;7.15;3.05;;;23.50;64.60;;;;;;7842743;28;20532;-53
2022/01/26 11:33:24;;;;;;;5.78;2.70;;;23.60;64.70;;;;;;7843491;28;20479;-53
2022/01/26 11:37:17;;;;;;;7.25;2.78;;;23.50;64.70;;;;;;7843274;28;20178;-51
2022/01/26 11:45:34;;;;;;;5.03;2.90;;;23.40;64.80;;;;;;7843257;28;20190;-52
2022/01/26 11:49:26;;;;;;;5.97;2.85;;;23.40;64.80;;;;;;7842652;28;20194;-51
2022/01/26 11:53:16;;;;;;;13.63;3.45;;;23.40;64.90;;;;;;7842979;28;20174;-51
2022/01/26 11:57:10;;;;;;;14.23;3.30;;;23.30;65.00;;;;;;7842358;28;20572;-53
2022/01/26 12:01:16;;;;;;;16.63;3.40;;;23.20;65.00;;;;;;7841531;28;20252;-53
2022/01/26 12:05:06;;;;;;;7.78;3.47;;;23.20;65.10;;;;;;7842359;28;20265;-52
2022/01/26 12:08:54;;;;;;;9.27;2.97;;;23.10;65.00;;;;;;7841798;28;20201;-52
2022/01/26 12:12:40;;;;;;;4.97;2.45;;;23.10;65.20;;;;;;7841990;28;20197;-55
2022/01/26 12:16:38;;;;;;;8.27;2.97;;;23.00;65.10;;;;;;7841966;28;20698;-55
2022/01/26 12:32:54;;;;;;;7.82;2.70;;;22.90;65.40;;;;;;7841843;28;20174;-55
2022/01/26 12:36:59;;;;;;;9.25;3.13;;;22.80;65.40;;;;;;7841231;28;20213;-55
2022/01/26 12:45:01;;;;;;;8.45;2.78;;;22.80;65.40;;;;;;7841190;28;20655;-55
2022/01/26 12:48:49;;;;;;;4.40;3.22;;;22.70;65.50;;;;;;7840882;28;20206;-54
2022/01/26 12:52:35;;;;;;;7.47;2.58;;;22.60;65.50;;;;;;7841009;28;20218;-53
2022/01/26 12:56:27;;;;;;;4.03;2.70;;;22.60;65.50;;;;;;7840386;28;20206;-52
2022/01/26 13:00:13;;;;;;;6.25;2.60;;;22.60;65.60;;;;;;7840592;28;20212;-53
2022/01/26 13:04:02;;;;;;;4.75;2.58;;;22.50;65.60;;;;;;7840672;28;20182;-52
2022/01/26 13:08:05;;;;;;;4.75;2.78;;;22.50;65.70;;;;;;7840453;28;20659;-51
2022/01/26 13:11:51;;;;;;;8.90;3.15;;;22.40;65.40;;;;;;7839726;28;20295;-53
2022/01/26 13:15:44;;;;;;;22.50;5.60;;;22.40;64.80;;;;;;7840259;28;20681;-50
2022/01/26 13:19:57;;;;;;;10.10;3.88;;;22.20;60.50;;;;;;7839959;28;20254;-53
2022/01/26 13:24:10;;;;;;;12.68;3.78;;;22.00;62.50;;;;;;7837026;28;20193;-53
2022/01/26 13:28:10;;;;;;;7.50;3.42;;;21.90;64.10;;;;;;7839394;28;20190;-52
2022/01/26 13:51:46;;;;;;;10.40;3.25;;;22.10;65.30;;;;;;7838179;28;20169;-52
2022/01/26 13:55:48;;;;;;;7.13;3.28;;;22.20;65.30;;;;;;7837617;28;20310;-55
2022/01/26 13:59:44;;;;;;;9.15;3.33;;;22.40;65.20;;;;;;7837467;28;20208;-54
2022/01/26 14:03:33;;;;;;;9.80;3.75;;;22.50;65.50;;;;;;7837934;28;20177;-55
2022/01/26 14:07:18;;;;;;;16.90;3.42;;;22.60;65.50;;;;;;7837685;28;20244;-55
2022/01/26 14:11:04;;;;;;;10.52;3.38;;;22.60;65.50;;;;;;7837477;28;20340;-54
2022/01/26 14:14:54;;;;;;;7.65;2.75;;;22.70;65.60;;;;;;7837583;28;20205;-53
2022/01/26 14:22:37;;;;;;;8.40;3.10;;;22.70;65.80;;;;;;7819316;28;20218;-55
2022/01/26 14:26:28;;;;;;;11.57;2.80;;;22.70;66.00;;;;;;7806079;28;20178;-55
2022/01/26 14:34:48;;;;;;;6.32;3.00;;;22.70;66.10;;;;;;7836293;28;20394;-54
2022/01/26 14:54:50;;;;;;;5.00;2.55;;;22.70;66.80;;;;;;7812262;28;20675;-54
2022/01/26 15:12:06;;;;;;;8.10;2.72;;;22.60;66.60;;;;;;7810828;28;20210;-53
2022/01/26 15:35:00;;;;;;;5.93;2.83;;;22.50;66.50;;;;;;7809440;28;20231;-51
2022/01/26 15:50:50;;;;;;;9.57;2.50;;;22.80;66.50;;;;;;7811606;28;20206;-51
2022/01/26 16:27:19;;;;;;;9.80;2.95;;;23.10;65.50;;;;;;7811352;28;20656;-55
2022/01/26 16:35:26;;;;;;;5.68;2.17;;;23.20;65.40;;;;;;7811392;28;20203;-54
2022/01/26 16:44:19;;;;;;;9.10;2.47;;;23.20;66.40;;;;;;7810649;28;20282;-55
2022/01/26 17:55:10;;;;;;;6.68;3.60;;;24.40;64.60;;;;;;7838885;28;20201;-55
2022/01/26 18:05:04;;;;;;;4.70;3.20;;;24.80;64.00;;;;;;7838948;28;20418;-49
2022/01/26 18:33:10;;;;;;;6.85;2.83;;;24.40;64.40;;;;;;7838167;28;20591;-55
2022/01/26 18:49:21;;;;;;;4.20;2.97;;;24.20;64.60;;;;;;7837954;28;20201;-54
2022/01/26 18:53:07;;;;;;;5.53;3.42;;;24.10;64.70;;;;;;7838289;28;20189;-54
2022/01/26 18:56:58;;;;;;;7.03;3.47;;;24.00;64.80;;;;;;7838752;28;20625;-52
2022/01/26 19:00:44;;;;;;;4.07;3.15;;;23.90;64.80;;;;;;7837956;28;20293;-55
2022/01/26 19:04:38;;;;;;;6.68;3.45;;;23.90;64.80;;;;;;7838278;28;20193;-54
2022/01/26 19:08:23;;;;;;;5.40;3.63;;;23.80;64.90;;;;;;7838495;28;20208;-49
2022/01/26 19:12:13;;;;;;;4.65;3.60;;;23.70;64.90;;;;;;7844050;28;20178;-50
2022/01/26 19:16:06;;;;;;;9.43;4.10;;;23.70;65.00;;;;;;7843970;28;20292;-51
2022/01/26 19:32:04;;;;;;;6.60;4.20;;;23.40;65.10;;;;;;7843316;28;20181;-49
2022/01/26 19:40:28;;;;;;;6.68;4.07;;;23.30;65.20;;;;;;7842832;28;20272;-50
2022/01/26 19:52:10;;;;;;;9.88;4.60;;;23.00;65.40;;;;;;7841261;28;20543;-53
2022/01/26 19:55:56;;;;;;;7.47;4.55;;;23.00;65.30;;;;;;7842574;28;20739;-54
2022/01/26 19:59:41;;;;;;;9.45;4.35;;;22.80;65.40;;;;;;7842272;28;20276;-53
2022/01/26 20:03:28;;;;;;;15.18;4.30;;;22.80;65.40;;;;;;7842455;28;20170;-51
2022/01/26 20:07:19;;;;;;;7.82;4.82;;;22.60;65.50;;;;;;7842425;28;20171;-51
2022/01/26 20:11:09;;;;;;;11.43;5.10;;;22.60;65.60;;;;;;7842250;28;20229;-52
2022/01/26 20:14:55;;;;;;;10.93;4.90;;;22.60;65.70;;;;;;7842065;28;20236;-52
2022/01/26 20:18:41;;;;;;;13.07;4.93;;;22.60;65.80;;;;;;7841486;28;20194;-50
2022/01/26 20:22:26;;;;;;;75.30;7.88;;;22.60;66.00;;;;;;7841803;28;20181;-52
2022/01/26 20:26:12;;;;;;;43.33;5.28;;;22.70;65.90;;;;;;7841956;28;20239;-49
2022/01/26 20:30:02;;;;;;;53.15;7.97;;;22.70;66.10;;;;;;7841595;28;20202;-56
2022/01/26 20:33:50;;;;;;;47.40;6.70;;;22.80;66.00;;;;;;7841518;28;20232;-51
2022/01/26 20:37:36;;;;;;;25.08;5.43;;;22.90;65.70;;;;;;7841173;28;20244;-52
2022/01/26 20:41:22;;;;;;;24.30;4.65;;;23.00;65.50;;;;;;7834406;28;20179;-52
2022/01/26 20:45:08;;;;;;;26.00;5.90;;;23.20;65.40;;;;;;7823030;28;20292;-53
2022/01/26 20:48:54;;;;;;;37.58;5.50;;;23.20;65.60;;;;;;7822368;28;20246;-50
2022/01/26 20:52:39;;;;;;;25.88;5.57;;;23.30;65.80;;;;;;7832105;28;20194;-51
2022/01/26 20:56:25;;;;;;;19.02;5.60;;;23.30;66.70;;;;;;7841394;28;20205;-53
2022/01/26 21:00:12;;;;;;;26.30;6.18;;;23.40;67.40;;;;;;7840842;28;20197;-53
2022/01/26 21:03:58;;;;;;;16.52;4.78;;;23.40;68.40;;;;;;7832873;28;20174;-53
2022/01/26 21:07:43;;;;;;;28.70;6.90;;;23.40;68.70;;;;;;7840611;28;20209;-52
2022/01/26 21:11:29;;;;;;;20.58;5.25;;;23.40;68.80;;;;;;7817187;28;20190;-50
2022/01/26 21:15:16;;;;;;;16.27;5.45;;;23.30;69.00;;;;;;7824755;28;20213;-50
2022/01/26 21:19:03;;;;;;;28.02;6.00;;;23.40;68.90;;;;;;7829301;28;20202;-50
2022/01/26 21:22:49;;;;;;;16.00;5.32;;;23.40;68.80;;;;;;7809238;28;20182;-51
2022/01/26 21:26:34;;;;;;;15.73;6.13;;;23.40;69.60;;;;;;7809256;28;20274;-52
2022/01/26 21:30:20;;;;;;;21.52;5.18;;;23.30;68.70;;;;;;7808570;28;20225;-50
2022/01/26 21:34:05;;;;;;;16.85;5.10;;;23.30;68.70;;;;;;7808254;28;20198;-49
2022/01/26 21:37:53;;;;;;;16.30;4.90;;;23.20;68.80;;;;;;7808440;28;20186;-50
2022/01/26 21:41:39;;;;;;;13.60;4.90;;;23.20;68.70;;;;;;7808783;28;20182;-49
2022/01/26 21:45:25;;;;;;;19.20;5.22;;;23.20;68.90;;;;;;7808378;28;20198;-49
2022/01/26 21:49:11;;;;;;;13.77;5.03;;;23.10;68.80;;;;;;7808175;28;20234;-50
2022/01/26 21:52:57;;;;;;;11.98;5.35;;;23.10;68.90;;;;;;7808337;28;20174;-49
2022/01/26 21:56:42;;;;;;;13.52;5.45;;;23.00;68.80;;;;;;7808140;28;20213;-52
2022/01/26 22:00:28;;;;;;;12.30;5.00;;;23.00;68.80;;;;;;7806540;28;20195;-50
2022/01/26 22:04:13;;;;;;;10.13;4.72;;;22.90;68.80;;;;;;7807994;28;20182;-49
2022/01/26 22:08:00;;;;;;;9.43;5.25;;;22.80;68.50;;;;;;7807947;28;20206;-53
2022/01/26 22:11:46;;;;;;;11.23;5.40;;;22.80;68.50;;;;;;7808231;28;20186;-53
2022/01/26 22:15:31;;;;;;;9.93;5.35;;;22.70;68.50;;;;;;7807707;28;20256;-53
2022/01/26 22:19:17;;;;;;;13.80;5.22;;;22.60;68.30;;;;;;7807443;28;20198;-54
2022/01/26 22:23:04;;;;;;;16.02;4.85;;;22.60;68.40;;;;;;7807755;28;20175;-51
2022/01/26 22:26:50;;;;;;;11.05;5.45;;;22.50;68.40;;;;;;7807865;28;20588;-53
2022/01/26 22:30:38;;;;;;;7.97;4.75;;;22.40;68.20;;;;;;7807132;28;20628;-53
2022/01/26 22:34:24;;;;;;;10.35;4.75;;;22.40;68.30;;;;;;7807303;28;20573;-55
2022/01/26 22:38:09;;;;;;;7.80;5.03;;;22.30;68.20;;;;;;7807141;28;20203;-54
2022/01/26 22:41:55;;;;;;;9.80;4.80;;;22.20;68.20;;;;;;7807121;28;20186;-51
2022/01/26 22:45:44;;;;;;;8.02;5.20;;;22.10;68.20;;;;;;7807970;28;20535;-55
2022/01/26 22:49:30;;;;;;;9.25;4.90;;;22.10;68.20;;;;;;7807268;28;20198;-53
2022/01/26 22:53:16;;;;;;;9.85;4.72;;;22.00;68.20;;;;;;7807248;28;20186;-52
2022/01/26 22:57:02;;;;;;;6.78;4.78;;;22.00;68.20;;;;;;7807013;28;20206;-55
2022/01/26 23:06:05;;;;;;;10.00;5.18;;;21.90;68.20;;;;;;7807183;28;20186;-55
2022/01/26 23:09:07;;;;;;;7.65;4.72;;;21.90;68.10;;;;;;7805944;28;20213;-55
2022/01/26 23:12:53;;;;;;;10.60;5.32;;;21.80;68.20;;;;;;7806899;28;20179;-55
2022/01/26 23:16:38;;;;;;;8.75;4.90;;;21.70;68.20;;;;;;7806880;28;20209;-53
2022/01/26 23:20:24;;;;;;;9.02;4.80;;;21.70;68.20;;;;;;7806420;28;20194;-52
2022/01/26 23:24:10;;;;;;;11.75;5.25;;;21.60;68.20;;;;;;7806737;28;20813;-50
2022/01/26 23:28:18;;;;;;;16.77;5.47;;;21.60;68.30;;;;;;7806239;28;20285;-51
2022/01/26 23:40:44;;;;;;;9.18;4.55;;;21.50;68.30;;;;;;7814018;28;20241;-53
